createdAt,value
2022-12-29T00:03:05.557Z,96939.00
2022-12-29T00:07:07.588Z,96922.00
2022-12-29T00:11:15.129Z,96899.00
2022-12-29T00:15:34.686Z,96784.00
2022-12-29T00:19:54.215Z,96919.00
2022-12-29T00:24:13.683Z,96914.00
2022-12-29T00:28:34.030Z,96919.00
2022-12-29T00:32:54.066Z,96915.00
2022-12-29T00:36:55.420Z,96911.00
2022-12-29T00:41:14.959Z,96892.00
2022-12-29T00:45:16.162Z,96922.00
2022-12-29T00:49:30.851Z,96908.00
2022-12-29T00:53:32.248Z,96798.00
2022-12-29T00:57:33.400Z,96898.00
2022-12-29T01:01:36.653Z,96898.00
2022-12-29T01:05:38.084Z,96888.00
2022-12-29T01:09:57.371Z,96880.00
2022-12-29T01:13:58.468Z,96871.00
2022-12-29T01:17:59.432Z,96852.00
2022-12-29T01:22:00.628Z,96868.00
2022-12-29T01:26:13.515Z,96863.00
2022-12-29T01:30:15.363Z,96830.00
2022-12-29T01:34:16.510Z,96847.00
2022-12-29T01:38:17.592Z,96844.00
2022-12-29T01:42:21.841Z,96853.00
2022-12-29T01:46:32.353Z,96863.00
2022-12-29T01:50:38.427Z,96861.00
2022-12-29T01:54:46.461Z,96877.00
2022-12-29T01:58:51.272Z,96870.00
2022-12-29T02:02:54.243Z,96885.00
2022-12-29T02:06:58.807Z,96888.00
2022-12-29T02:11:01.207Z,96902.00
2022-12-29T02:15:04.749Z,96895.00
2022-12-29T02:19:38.240Z,96884.00
2022-12-29T02:24:04.319Z,96875.00
2022-12-29T02:28:30.194Z,96874.00
2022-12-29T02:32:53.035Z,96904.00
2022-12-29T02:37:09.856Z,96896.00
2022-12-29T02:41:23.797Z,96876.00
2022-12-29T02:45:40.215Z,96871.00
2022-12-29T02:49:47.814Z,96880.00
2022-12-29T02:54:07.548Z,96880.00
2022-12-29T02:58:21.291Z,96882.00
2022-12-29T03:02:44.582Z,96879.00
2022-12-29T03:06:58.738Z,96886.00
2022-12-29T03:11:03.428Z,96888.00
2022-12-29T03:15:26.597Z,96882.00
2022-12-29T03:19:36.840Z,96881.00
2022-12-29T03:23:41.571Z,96879.00
2022-12-29T03:27:46.034Z,96880.00
2022-12-29T03:31:49.761Z,96884.00
2022-12-29T03:35:54.477Z,96877.00
2022-12-29T03:39:57.215Z,96870.00
2022-12-29T03:43:58.358Z,96866.00
2022-12-29T03:47:59.553Z,96849.00
2022-12-29T03:52:00.669Z,96859.00
2022-12-29T03:56:01.881Z,96836.00
2022-12-29T04:00:05.746Z,96864.00
2022-12-29T04:04:06.778Z,96873.00
2022-12-29T04:08:07.897Z,96854.00
2022-12-29T04:12:08.862Z,96832.00
2022-12-29T04:16:09.950Z,96839.00
2022-12-29T04:20:29.518Z,96856.00
2022-12-29T04:24:32.629Z,96842.00
2022-12-29T04:28:34.149Z,96852.00
2022-12-29T04:32:35.588Z,96853.00
2022-12-29T04:36:36.566Z,96849.00
2022-12-29T04:40:42.976Z,96841.00
2022-12-29T04:44:45.319Z,96849.00
2022-12-29T04:48:46.748Z,96852.00
2022-12-29T04:52:47.872Z,96847.00
2022-12-29T04:56:48.872Z,96838.00
2022-12-29T05:00:51.366Z,96844.00
2022-12-29T05:04:52.473Z,96846.00
2022-12-29T05:08:53.595Z,96840.00
2022-12-29T05:12:54.729Z,96834.00
2022-12-29T05:16:55.867Z,96831.00
2022-12-29T05:20:56.961Z,96825.00
2022-12-29T05:24:58.097Z,96831.00
2022-12-29T05:29:00.328Z,96831.00
2022-12-29T05:33:01.478Z,96848.00
2022-12-29T05:37:03.320Z,96835.00
2022-12-29T05:41:04.699Z,96836.00
2022-12-29T05:45:07.557Z,96834.00
2022-12-29T05:49:08.673Z,96822.00
2022-12-29T05:53:09.669Z,96817.00
2022-12-29T05:57:11.907Z,96849.00
2022-12-29T06:01:13.098Z,96850.00
2022-12-29T06:05:14.367Z,96844.00
2022-12-29T06:09:15.598Z,96829.00
2022-12-29T06:13:16.717Z,96831.00
2022-12-29T06:17:20.482Z,96841.00
2022-12-29T06:21:21.372Z,96832.00
2022-12-29T06:25:22.470Z,96834.00
2022-12-29T06:29:23.604Z,96840.00
2022-12-29T06:33:24.571Z,96821.00
2022-12-29T06:37:25.667Z,96830.00
2022-12-29T06:41:31.954Z,96828.00
2022-12-29T06:45:29.704Z,96831.00
2022-12-29T06:49:30.704Z,96836.00
2022-12-29T06:53:31.690Z,96836.00
2022-12-29T06:57:32.789Z,96820.00
2022-12-29T07:01:34.858Z,96816.00
2022-12-29T07:05:35.830Z,96803.00
2022-12-29T07:09:37.301Z,96806.00
2022-12-29T07:13:38.463Z,96808.00
2022-12-29T07:17:39.785Z,96804.00
2022-12-29T07:21:46.455Z,96806.00
2022-12-29T07:25:47.513Z,96793.00
2022-12-29T07:29:48.722Z,96803.00
2022-12-29T07:33:50.221Z,96813.00
2022-12-29T07:37:51.314Z,96816.00
2022-12-29T07:41:52.327Z,96797.00
2022-12-29T07:45:53.492Z,96792.00
2022-12-29T07:49:54.482Z,96806.00
2022-12-29T07:53:55.659Z,96786.00
2022-12-29T07:57:57.244Z,96808.00
2022-12-29T08:01:58.766Z,96806.00
2022-12-29T08:06:00.071Z,96809.00
2022-12-29T08:10:02.749Z,96824.00
2022-12-29T08:14:04.593Z,96834.00
2022-12-29T08:18:06.327Z,96847.00
2022-12-29T08:22:07.425Z,96829.00
2022-12-29T08:26:08.556Z,96834.00
2022-12-29T08:30:10.717Z,96819.00
2022-12-29T08:34:11.663Z,96835.00
2022-12-29T08:38:12.709Z,96821.00
2022-12-29T08:42:15.825Z,96864.00
2022-12-29T08:46:17.572Z,96829.00
2022-12-29T08:50:18.895Z,96849.00
2022-12-29T08:54:22.152Z,96852.00
2022-12-29T08:58:23.506Z,96863.00
2022-12-29T09:02:25.152Z,96880.00
2022-12-29T09:06:26.518Z,96912.00
2022-12-29T09:10:27.854Z,96922.00
2022-12-29T09:14:29.233Z,96920.00
2022-12-29T09:18:30.621Z,96924.00
2022-12-29T09:22:31.824Z,96918.00
2022-12-29T09:26:32.982Z,96924.00
2022-12-29T09:30:34.109Z,96931.00
2022-12-29T09:34:35.120Z,96919.00
2022-12-29T09:38:36.219Z,96920.00
2022-12-29T09:42:47.221Z,96927.00
2022-12-29T09:46:51.631Z,96924.00
2022-12-29T09:50:56.410Z,96933.00
2022-12-29T09:55:05.328Z,96950.00
2022-12-29T09:59:13.805Z,96942.00
2022-12-29T10:03:21.300Z,96942.00
2022-12-29T10:07:48.881Z,96921.00
2022-12-29T10:12:08.704Z,96927.00
2022-12-29T10:16:19.889Z,96947.00
2022-12-29T10:20:33.922Z,96941.00
2022-12-29T10:24:38.991Z,96915.00
2022-12-29T10:28:56.099Z,96930.00
2022-12-29T10:33:01.802Z,96932.00
2022-12-29T10:37:12.700Z,96931.00
2022-12-29T10:41:20.576Z,96935.00
2022-12-29T10:45:25.570Z,96929.00
2022-12-29T10:49:30.547Z,96929.00
2022-12-29T10:53:41.329Z,96927.00
2022-12-29T10:57:45.334Z,96931.00
2022-12-29T11:02:05.350Z,96921.00
2022-12-29T11:06:27.224Z,96924.00
2022-12-29T11:10:35.991Z,96929.00
2022-12-29T11:14:40.052Z,96927.00
2022-12-29T11:18:42.928Z,96934.00
2022-12-29T11:22:45.473Z,96940.00
2022-12-29T11:26:47.116Z,96931.00
2022-12-29T11:30:52.006Z,96951.00
2022-12-29T11:34:53.135Z,96950.00
2022-12-29T11:38:56.119Z,96950.00
2022-12-29T11:43:04.853Z,96936.00
2022-12-29T11:47:10.032Z,96949.00
2022-12-29T11:51:12.572Z,96961.00
2022-12-29T11:55:20.556Z,96956.00
2022-12-29T11:59:31.179Z,96965.00
2022-12-29T12:03:35.558Z,96960.00
2022-12-29T12:07:46.552Z,96967.00
2022-12-29T12:11:51.953Z,96951.00
2022-12-29T12:16:00.005Z,96962.00
2022-12-29T12:20:05.644Z,96970.00
2022-12-29T12:24:28.695Z,96962.00
2022-12-29T12:28:48.876Z,96975.00
2022-12-29T12:33:21.055Z,96976.00
2022-12-29T12:37:37.871Z,96968.00
2022-12-29T12:42:00.698Z,96977.00
2022-12-29T12:46:21.008Z,96963.00
2022-12-29T12:50:45.363Z,96971.00
2022-12-29T12:54:50.623Z,96976.00
2022-12-29T12:59:00.131Z,96974.00
2022-12-29T13:03:08.082Z,96980.00
2022-12-29T13:07:29.963Z,96985.00
2022-12-29T13:11:38.156Z,96989.00
2022-12-29T13:15:49.479Z,96982.00
2022-12-29T13:20:06.329Z,96980.00
2022-12-29T13:24:25.879Z,96986.00
2022-12-29T13:28:42.704Z,96990.00
2022-12-29T13:32:59.527Z,96978.00
2022-12-29T13:37:04.289Z,96977.00
2022-12-29T13:41:09.231Z,96982.00
2022-12-29T13:45:14.121Z,96979.00
2022-12-29T13:49:18.571Z,96993.00
2022-12-29T13:53:35.778Z,97003.00
2022-12-29T13:57:52.926Z,97010.00
2022-12-29T14:02:14.240Z,97018.00
2022-12-29T14:06:31.131Z,97010.00
2022-12-29T14:10:38.366Z,97019.00
2022-12-29T14:14:39.836Z,97017.00
2022-12-29T14:18:45.044Z,97025.00
2022-12-29T14:23:01.652Z,97037.00
2022-12-29T14:27:15.627Z,97045.00
2022-12-29T14:31:32.427Z,97034.00
2022-12-29T14:35:42.751Z,97040.00
2022-12-29T14:39:45.569Z,97042.00
2022-12-29T14:44:20.520Z,97045.00
2022-12-29T14:48:27.823Z,97060.00
2022-12-29T14:52:31.479Z,97045.00
2022-12-29T14:56:33.724Z,97051.00
2022-12-29T15:00:36.390Z,97055.00
2022-12-29T15:04:38.564Z,97048.00
2022-12-29T15:09:14.278Z,97047.00
2022-12-29T15:13:18.719Z,97044.00
2022-12-29T15:17:31.438Z,97042.00
2022-12-29T15:21:34.917Z,97054.00
2022-12-29T15:25:36.640Z,97055.00
2022-12-29T15:29:43.676Z,97061.00
2022-12-29T15:33:47.835Z,97065.00
2022-12-29T15:37:48.827Z,97060.00
2022-12-29T15:42:04.420Z,97062.00
2022-12-29T15:46:06.177Z,97072.00
2022-12-29T15:50:17.125Z,97062.00
2022-12-29T15:54:20.868Z,97075.00
2022-12-29T15:58:24.974Z,97089.00
2022-12-29T16:02:27.121Z,97092.00
2022-12-29T16:06:36.353Z,97100.00
2022-12-29T16:10:41.164Z,97093.00
2022-12-29T16:14:55.438Z,97100.00
2022-12-29T16:18:58.391Z,97111.00
2022-12-29T16:23:00.697Z,97109.00
2022-12-29T16:27:23.935Z,97126.00
2022-12-29T16:31:53.156Z,97116.00
2022-12-29T16:35:54.054Z,97129.00
2022-12-29T16:39:55.523Z,97136.00
2022-12-29T16:44:14.845Z,97139.00
2022-12-29T16:48:21.939Z,97146.00
2022-12-29T16:52:29.856Z,97145.00
2022-12-29T16:56:34.076Z,97156.00
2022-12-29T17:00:37.016Z,97158.00
2022-12-29T17:04:38.156Z,97164.00
2022-12-29T17:08:41.610Z,97167.00
2022-12-29T17:12:46.140Z,97158.00
2022-12-29T17:16:49.354Z,97166.00
2022-12-29T17:20:50.526Z,97167.00
2022-12-29T17:24:53.516Z,97166.00
2022-12-29T17:28:54.511Z,97174.00
2022-12-29T17:33:08.523Z,97178.00
2022-12-29T17:37:16.499Z,97179.00
2022-12-29T17:41:17.600Z,97171.00
2022-12-29T17:45:22.538Z,97169.00
2022-12-29T17:49:23.541Z,97175.00
2022-12-29T17:53:27.266Z,97179.00
2022-12-29T17:57:28.394Z,97177.00
2022-12-29T18:01:35.583Z,97170.00
2022-12-29T18:05:34.403Z,97172.00
2022-12-29T18:09:35.403Z,97168.00
2022-12-29T18:13:45.883Z,97170.00
2022-12-29T18:17:39.543Z,97176.00
2022-12-29T18:21:42.962Z,97176.00
2022-12-29T18:25:56.808Z,97189.00
2022-12-29T18:29:58.056Z,97180.00
2022-12-29T18:34:01.430Z,97194.00
2022-12-29T18:38:02.419Z,97191.00
2022-12-29T18:42:04.927Z,97201.00
2022-12-29T18:46:06.022Z,97208.00
2022-12-29T18:50:07.494Z,97219.00
2022-12-29T18:54:29.994Z,97209.00
2022-12-29T18:58:34.238Z,97216.00
2022-12-29T19:02:35.272Z,97227.00
2022-12-29T19:06:37.263Z,97226.00
2022-12-29T19:10:39.786Z,97222.00
2022-12-29T19:14:40.736Z,97229.00
2022-12-29T19:18:44.005Z,97229.00
2022-12-29T19:22:44.727Z,97230.00
2022-12-29T19:26:45.922Z,97238.00
2022-12-29T19:30:52.224Z,97232.00
2022-12-29T19:34:51.700Z,97232.00
2022-12-29T19:38:53.274Z,97238.00
2022-12-29T19:42:55.923Z,97234.00
2022-12-29T19:46:57.356Z,97241.00
2022-12-29T19:51:10.218Z,97237.00
2022-12-29T19:55:14.749Z,97245.00
2022-12-29T19:59:15.890Z,97224.00
2022-12-29T20:03:18.745Z,97245.00
2022-12-29T20:07:21.511Z,97237.00
2022-12-29T20:11:22.750Z,97240.00
2022-12-29T20:15:24.546Z,97233.00
2022-12-29T20:19:25.664Z,97244.00
2022-12-29T20:23:27.098Z,97253.00
2022-12-29T20:27:28.521Z,97241.00
2022-12-29T20:31:32.508Z,97247.00
2022-12-29T20:35:33.665Z,97257.00
2022-12-29T20:39:36.161Z,97261.00
2022-12-29T20:43:37.174Z,97253.00
2022-12-29T20:47:38.176Z,97240.00
2022-12-29T20:52:04.917Z,97254.00
2022-12-29T20:55:44.538Z,97255.00
2022-12-29T20:59:45.897Z,97253.00
2022-12-29T21:03:47.342Z,97263.00
2022-12-29T21:07:49.756Z,97278.00
2022-12-29T21:11:51.398Z,97292.00
2022-12-29T21:16:04.773Z,97306.00
2022-12-29T21:20:06.633Z,97307.00
2022-12-29T21:24:08.277Z,97310.00
2022-12-29T21:28:11.581Z,97318.00
2022-12-29T21:32:12.729Z,97328.00
2022-12-29T21:36:13.728Z,97333.00
2022-12-29T21:40:15.029Z,97339.00
2022-12-29T21:44:34.432Z,97346.00
2022-12-29T21:48:35.652Z,97351.00
2022-12-29T21:52:36.668Z,97355.00
2022-12-29T21:56:37.883Z,97363.00
2022-12-29T22:01:36.206Z,97342.00
2022-12-29T22:05:56.082Z,97346.00
2022-12-29T22:10:15.503Z,97352.00
2022-12-29T22:14:16.973Z,97347.00
2022-12-29T22:18:17.960Z,97363.00
2022-12-29T22:22:19.258Z,97373.00
2022-12-29T22:26:20.412Z,97372.00
2022-12-29T22:30:21.790Z,97372.00
2022-12-29T22:34:22.953Z,97382.00
2022-12-29T22:38:23.941Z,97385.00
2022-12-29T22:42:25.310Z,97377.00
2022-12-29T22:46:26.354Z,97386.00
2022-12-29T22:50:27.621Z,97394.00
2022-12-29T22:54:29.130Z,97396.00
2022-12-29T22:58:30.280Z,97416.00
2022-12-29T23:02:31.563Z,97416.00
2022-12-29T23:06:33.937Z,97418.00
2022-12-29T23:10:34.918Z,97417.00
2022-12-29T23:14:36.075Z,97417.00
2022-12-29T23:18:37.107Z,97428.00
2022-12-29T23:22:38.083Z,97429.00
2022-12-29T23:26:42.965Z,97433.00
2022-12-29T23:30:44.206Z,97430.00
2022-12-29T23:34:45.356Z,97444.00
2022-12-29T23:38:46.543Z,97444.00
2022-12-29T23:42:47.692Z,97454.00
2022-12-29T23:46:49.042Z,97452.00
2022-12-29T23:50:50.238Z,97437.00
2022-12-29T23:54:51.381Z,97430.00
2022-12-29T23:58:52.558Z,97424.00
